PWSweather.com
Personal Weather Stations
Station Observations

MakarauRodneyNZ

Lat: -36.52421, Lon: 174.47572

Elevation: 606

Station Type: Davis VP2

http://kaiparaweather.dynu.net/index.php

High Low Average
Temperature 55.8°F13.2°C 52.2°F11.2°C 53.4°F11.9°C
Dew Point 53.0°F11.7°C 48.7°F9.3°C 51.0°F10.6°C
Winds 11.5 mph 18.5 kmh Calm Calm 2.0 mph SE3.2 kmh SE
Wind Gusts 20.7 mph33.3 kmh -- 5.0 mph8.0 kmh
Humidity 96% 78% 92%
Pressure 30.28 in1025.4 mb 30.12 in1020.0 mb -
Precipitation 0.17 in4.3 mm - -
Hour Temp Dew Point Humidity Winds Wind Gusts Pressure Precip Precip Rate Daily Precip Total
12:00 AM 46.2°F7.9°C 43.1°F6.2°C 89% Calm Calm -- 30.45 in1031.2 mb - 0.00 in0.0 mm 0.00 in0.0 mm
12:10 AM 46.2°F7.9°C 43.1°F6.2°C 89% Calm Calm 1.2 mph1.9 kmh 30.45 in1031.2 mb - 0.00 in0.0 mm 0.00 in0.0 mm
12:20 AM 46.0°F7.8°C 42.9°F6.1°C 89% Calm Calm -- 30.45 in1031.2 mb - 0.00 in0.0 mm 0.00 in0.0 mm
12:30 AM 45.9°F7.7°C 42.8°F6.0°C 89% Calm Calm -- 30.45 in1031.2 mb - 0.00 in0.0 mm 0.00 in0.0 mm
12:40 AM 45.9°F7.7°C 43.1°F6.2°C 90% Calm Calm -- 30.44 in1030.8 mb - 0.00 in0.0 mm 0.00 in0.0 mm
12:50 AM 45.8°F7.7°C 43.0°F6.1°C 90% Calm Calm -- 30.45 in1031.2 mb - 0.00 in0.0 mm 0.00 in0.0 mm
01:00 AM 45.8°F7.7°C 43.0°F6.1°C 90% Calm Calm -- 30.45 in1031.2 mb - 0.00 in0.0 mm 0.00 in0.0 mm
01:10 AM 45.9°F7.7°C 43.2°F6.2°C 90% Calm Calm -- 30.45 in1031.2 mb - 0.00 in0.0 mm 0.00 in0.0 mm
01:20 AM 46.0°F7.8°C 43.2°F6.2°C 90% Calm Calm -- 30.45 in1031.2 mb - 0.00 in0.0 mm 0.00 in0.0 mm
01:30 AM 46.0°F7.8°C 43.3°F6.3°C 90% Calm Calm -- 30.45 in1031.2 mb - 0.00 in0.0 mm 0.00 in0.0 mm
01:40 AM 46.1°F7.8°C 43.3°F6.3°C 90% Calm Calm -- 30.45 in1031.2 mb - 0.00 in0.0 mm 0.00 in0.0 mm
01:50 AM 46.2°F7.9°C 43.4°F6.3°C 90% Calm Calm -- 30.45 in1031.2 mb - 0.00 in0.0 mm 0.00 in0.0 mm
02:00 AM 46.3°F7.9°C 43.5°F6.4°C 90% Calm Calm -- 30.45 in1031.2 mb - 0.00 in0.0 mm 0.00 in0.0 mm
02:10 AM 46.3°F7.9°C 43.5°F6.4°C 90% Calm Calm -- 30.45 in1031.2 mb - 0.00 in0.0 mm 0.00 in0.0 mm
02:20 AM 46.4°F8.0°C 43.6°F6.4°C 90% Calm Calm -- 30.44 in1030.8 mb - 0.00 in0.0 mm 0.00 in0.0 mm
02:30 AM 46.4°F8.0°C 43.6°F6.4°C 90% Calm Calm -- 30.44 in1030.8 mb - 0.00 in0.0 mm 0.00 in0.0 mm
02:40 AM 46.4°F8.0°C 43.6°F6.4°C 90% Calm Calm -- 30.44 in1030.8 mb - 0.00 in0.0 mm 0.00 in0.0 mm
02:50 AM 46.4°F8.0°C 43.3°F6.3°C 89% Calm Calm -- 30.43 in1030.5 mb - 0.00 in0.0 mm 0.00 in0.0 mm
03:00 AM 46.3°F7.9°C 43.2°F6.2°C 89% Calm Calm -- 30.43 in1030.5 mb - 0.00 in0.0 mm 0.00 in0.0 mm
03:10 AM 46.3°F7.9°C 43.2°F6.2°C 89% 1.2 mph NE1.9 kmh NE 2.3 mph3.7 kmh 30.42 in1030.1 mb - 0.00 in0.0 mm 0.00 in0.0 mm
03:20 AM 46.4°F8.0°C 43.6°F6.4°C 90% Calm Calm -- 30.42 in1030.1 mb - 0.00 in0.0 mm 0.00 in0.0 mm
03:30 AM 46.5°F8.1°C 43.7°F6.5°C 90% Calm Calm -- 30.42 in1030.1 mb - 0.00 in0.0 mm 0.00 in0.0 mm
03:40 AM 46.7°F8.2°C 43.9°F6.6°C 90% Calm Calm -- 30.41 in1029.8 mb - 0.00 in0.0 mm 0.00 in0.0 mm
03:50 AM 46.7°F8.2°C 43.9°F6.6°C 90% 1.2 mph NE1.9 kmh NE 2.3 mph3.7 kmh 30.41 in1029.8 mb - 0.00 in0.0 mm 0.00 in0.0 mm
04:00 AM 46.7°F8.2°C 43.9°F6.6°C 90% Calm Calm -- 30.41 in1029.8 mb - 0.00 in0.0 mm 0.00 in0.0 mm
04:10 AM 46.6°F8.1°C 43.5°F6.4°C 89% Calm Calm -- 30.40 in1029.5 mb - 0.00 in0.0 mm 0.00 in0.0 mm
04:20 AM 46.6°F8.1°C 43.5°F6.4°C 89% Calm Calm -- 30.40 in1029.5 mb - 0.00 in0.0 mm 0.00 in0.0 mm
04:30 AM 46.5°F8.1°C 43.4°F6.3°C 89% Calm Calm -- 30.39 in1029.1 mb - 0.00 in0.0 mm 0.00 in0.0 mm
04:40 AM 46.3°F7.9°C 43.2°F6.2°C 89% 1.2 mph NE1.9 kmh NE 1.2 mph1.9 kmh 30.38 in1028.8 mb - 0.00 in0.0 mm 0.00 in0.0 mm
04:50 AM 46.0°F7.8°C 42.9°F6.1°C 89% Calm Calm 1.2 mph1.9 kmh 30.37 in1028.4 mb - 0.00 in0.0 mm 0.00 in0.0 mm
05:00 AM 45.9°F7.7°C 43.2°F6.2°C 90% Calm Calm -- 30.37 in1028.4 mb - 0.00 in0.0 mm 0.00 in0.0 mm
05:10 AM 46.0°F7.8°C 43.2°F6.2°C 90% Calm Calm -- 30.37 in1028.4 mb - 0.00 in0.0 mm 0.00 in0.0 mm
05:20 AM 46.2°F7.9°C 43.4°F6.3°C 90% Calm Calm 1.2 mph1.9 kmh 30.37 in1028.4 mb - 0.00 in0.0 mm 0.00 in0.0 mm
05:30 AM 46.3°F7.9°C 43.5°F6.4°C 90% Calm Calm -- 30.36 in1028.1 mb - 0.00 in0.0 mm 0.00 in0.0 mm
05:40 AM 46.3°F7.9°C 43.5°F6.4°C 90% Calm Calm -- 30.36 in1028.1 mb - 0.00 in0.0 mm 0.00 in0.0 mm
05:50 AM 46.3°F7.9°C 43.5°F6.4°C 90% Calm Calm -- 30.36 in1028.1 mb - 0.00 in0.0 mm 0.00 in0.0 mm
06:00 AM 46.4°F8.0°C 43.9°F6.6°C 91% Calm Calm -- 30.37 in1028.4 mb - 0.00 in0.0 mm 0.00 in0.0 mm
06:10 AM 46.6°F8.1°C 44.1°F6.7°C 91% Calm Calm -- 30.37 in1028.4 mb - 0.00 in0.0 mm 0.00 in0.0 mm
06:20 AM 46.8°F8.2°C 44.3°F6.8°C 91% Calm Calm -- 30.36 in1028.1 mb - 0.00 in0.0 mm 0.00 in0.0 mm
06:30 AM 46.9°F8.3°C 44.4°F6.9°C 91% Calm Calm -- 30.36 in1028.1 mb - 0.00 in0.0 mm 0.00 in0.0 mm
06:40 AM 47.0°F8.3°C 44.5°F6.9°C 91% Calm Calm -- 30.36 in1028.1 mb - 0.00 in0.0 mm 0.00 in0.0 mm
06:50 AM 47.1°F8.4°C 44.6°F7.0°C 91% Calm Calm 1.2 mph1.9 kmh 30.36 in1028.1 mb - 0.00 in0.0 mm 0.00 in0.0 mm
07:00 AM 47.1°F8.4°C 44.6°F7.0°C 91% Calm Calm -- 30.36 in1028.1 mb - 0.00 in0.0 mm 0.00 in0.0 mm
07:10 AM 47.1°F8.4°C 44.6°F7.0°C 91% Calm Calm -- 30.36 in1028.1 mb - 0.00 in0.0 mm 0.00 in0.0 mm
07:20 AM 47.4°F8.6°C 44.9°F7.2°C 91% Calm Calm -- 30.36 in1028.1 mb - 0.00 in0.0 mm 0.00 in0.0 mm
07:30 AM 47.6°F8.7°C 45.1°F7.3°C 91% Calm Calm -- 30.36 in1028.1 mb - 0.00 in0.0 mm 0.00 in0.0 mm
07:40 AM 47.9°F8.8°C 45.4°F7.4°C 91% Calm Calm -- 30.36 in1028.1 mb - 0.00 in0.0 mm 0.00 in0.0 mm
07:50 AM 48.3°F9.1°C 45.8°F7.7°C 91% Calm Calm -- 30.37 in1028.4 mb - 0.00 in0.0 mm 0.00 in0.0 mm
08:00 AM 48.7°F9.3°C 45.9°F7.7°C 90% Calm Calm -- 30.37 in1028.4 mb - 0.00 in0.0 mm 0.00 in0.0 mm
08:10 AM 49.1°F9.5°C 46.3°F7.9°C 90% Calm Calm -- 30.37 in1028.4 mb - 0.00 in0.0 mm 0.00 in0.0 mm
08:20 AM 49.4°F9.7°C 46.6°F8.1°C 90% Calm Calm -- 30.37 in1028.4 mb - 0.00 in0.0 mm 0.00 in0.0 mm
08:30 AM 49.6°F9.8°C 46.5°F8.1°C 89% Calm Calm -- 30.37 in1028.4 mb - 0.00 in0.0 mm 0.00 in0.0 mm
08:40 AM 49.8°F9.9°C 46.7°F8.2°C 89% Calm Calm -- 30.37 in1028.4 mb - 0.00 in0.0 mm 0.00 in0.0 mm
08:50 AM 50.0°F10.0°C 46.9°F8.3°C 89% Calm Calm -- 30.36 in1028.1 mb - 0.00 in0.0 mm 0.00 in0.0 mm
09:00 AM 50.1°F10.1°C 47.0°F8.3°C 89% Calm Calm -- 30.36 in1028.1 mb - 0.00 in0.0 mm 0.00 in0.0 mm
09:10 AM 50.3°F10.2°C 47.2°F8.4°C 89% Calm Calm -- 30.36 in1028.1 mb - 0.00 in0.0 mm 0.00 in0.0 mm
09:20 AM 50.6°F10.3°C 47.4°F8.6°C 89% Calm Calm -- 30.35 in1027.8 mb - 0.00 in0.0 mm 0.00 in0.0 mm
09:30 AM 50.7°F10.4°C 47.6°F8.7°C 89% 1.2 mph NE1.9 kmh NE 3.5 mph5.6 kmh 30.34 in1027.4 mb - 0.00 in0.0 mm 0.00 in0.0 mm
09:40 AM 50.9°F10.5°C 47.8°F8.8°C 89% 1.2 mph NE1.9 kmh NE 4.6 mph7.4 kmh 30.35 in1027.8 mb - 0.00 in0.0 mm 0.00 in0.0 mm
09:50 AM 51.3°F10.7°C 47.8°F8.8°C 88% Calm Calm -- 30.36 in1028.1 mb - 0.00 in0.0 mm 0.00 in0.0 mm
10:00 AM 51.7°F10.9°C 47.9°F8.8°C 87% 1.2 mph NE1.9 kmh NE -- 30.36 in1028.1 mb - 0.00 in0.0 mm 0.00 in0.0 mm
10:10 AM 52.0°F11.1°C 48.0°F8.9°C 86% Calm Calm 3.5 mph5.6 kmh 30.36 in1028.1 mb - 0.00 in0.0 mm 0.00 in0.0 mm
10:20 AM 52.2°F11.2°C 48.1°F8.9°C 86% Calm Calm 2.3 mph3.7 kmh 30.36 in1028.1 mb - 0.00 in0.0 mm 0.00 in0.0 mm
10:30 AM 52.2°F11.2°C 47.8°F8.8°C 85% 1.2 mph NNE1.9 kmh NNE 1.2 mph1.9 kmh 30.35 in1027.8 mb - 0.00 in0.0 mm 0.00 in0.0 mm
10:40 AM 52.3°F11.3°C 47.9°F8.8°C 85% Calm Calm 1.2 mph1.9 kmh 30.34 in1027.4 mb - 0.00 in0.0 mm 0.00 in0.0 mm
10:50 AM 52.6°F11.4°C 47.9°F8.8°C 84% Calm Calm 5.8 mph9.3 kmh 30.34 in1027.4 mb - 0.00 in0.0 mm 0.00 in0.0 mm
11:00 AM 53.1°F11.7°C 48.4°F9.1°C 84% Calm Calm -- 30.33 in1027.1 mb - 0.00 in0.0 mm 0.00 in0.0 mm
11:10 AM 53.6°F12.0°C 48.6°F9.2°C 83% 1.2 mph NE1.9 kmh NE 3.5 mph5.6 kmh 30.31 in1026.4 mb - 0.00 in0.0 mm 0.00 in0.0 mm
11:20 AM 54.0°F12.2°C 48.6°F9.2°C 82% Calm Calm -- 30.31 in1026.4 mb - 0.00 in0.0 mm 0.00 in0.0 mm
11:30 AM 54.3°F12.4°C 48.6°F9.2°C 81% 1.2 mph ENE1.9 kmh ENE 2.3 mph3.7 kmh 30.30 in1026.1 mb - 0.00 in0.0 mm 0.00 in0.0 mm
11:40 AM 54.4°F12.4°C 49.0°F9.4°C 82% 3.5 mph NE5.6 kmh NE 4.6 mph7.4 kmh 30.29 in1025.7 mb - 0.00 in0.0 mm 0.00 in0.0 mm
11:50 AM 54.8°F12.7°C 48.7°F9.3°C 80% 1.2 mph NE1.9 kmh NE 4.6 mph7.4 kmh 30.29 in1025.7 mb - 0.00 in0.0 mm 0.00 in0.0 mm
12:00 PM 55.2°F12.9°C 48.8°F9.3°C 79% Calm Calm -- 30.28 in1025.4 mb - 0.00 in0.0 mm 0.00 in0.0 mm
12:10 PM 55.4°F13.0°C 48.7°F9.3°C 78% 4.6 mph ENE7.4 kmh ENE 20.7 mph33.3 kmh 30.27 in1025.1 mb - 0.00 in0.0 mm 0.00 in0.0 mm
12:20 PM 55.5°F13.1°C 49.1°F9.5°C 79% 1.2 mph NE1.9 kmh NE 3.5 mph5.6 kmh 30.27 in1025.1 mb - 0.00 in0.0 mm 0.00 in0.0 mm
12:30 PM 55.3°F12.9°C 48.9°F9.4°C 79% 2.3 mph ENE3.7 kmh ENE 3.5 mph5.6 kmh 30.27 in1025.1 mb - 0.00 in0.0 mm 0.00 in0.0 mm
12:40 PM 55.3°F12.9°C 49.6°F9.8°C 81% 1.2 mph NE1.9 kmh NE 11.5 mph18.5 kmh 30.26 in1024.7 mb - 0.00 in0.0 mm 0.00 in0.0 mm
12:50 PM 55.2°F12.9°C 49.5°F9.7°C 81% 1.2 mph NNE1.9 kmh NNE 8.1 mph13.0 kmh 30.26 in1024.7 mb - 0.00 in0.0 mm 0.00 in0.0 mm
01:00 PM 55.5°F13.1°C 49.7°F9.8°C 81% Calm Calm 2.3 mph3.7 kmh 30.25 in1024.4 mb - 0.00 in0.0 mm 0.00 in0.0 mm
01:10 PM 55.7°F13.2°C 50.0°F10.0°C 81% Calm Calm 2.3 mph3.7 kmh 30.25 in1024.4 mb - 0.00 in0.0 mm 0.00 in0.0 mm
01:20 PM 55.8°F13.2°C 50.1°F10.1°C 81% Calm Calm 1.2 mph1.9 kmh 30.25 in1024.4 mb - 0.00 in0.0 mm 0.00 in0.0 mm
01:30 PM 55.8°F13.2°C 50.4°F10.2°C 82% Calm Calm 2.3 mph3.7 kmh 30.24 in1024.0 mb - 0.00 in0.0 mm 0.00 in0.0 mm
01:40 PM 55.5°F13.1°C 50.7°F10.4°C 84% Calm Calm 1.2 mph1.9 kmh 30.23 in1023.7 mb - 0.01 in0.3 mm 0.01 in0.3 mm
01:50 PM 54.7°F12.6°C 50.3°F10.2°C 85% Calm Calm 1.2 mph1.9 kmh 30.23 in1023.7 mb - 0.00 in0.0 mm 0.01 in0.3 mm
02:00 PM 54.0°F12.2°C 49.9°F9.9°C 86% Calm Calm 2.3 mph3.7 kmh 30.23 in1023.7 mb - 0.01 in0.3 mm 0.02 in0.5 mm
02:10 PM 53.4°F11.9°C 49.9°F9.9°C 88% Calm Calm 1.2 mph1.9 kmh 30.22 in1023.4 mb - 0.01 in0.3 mm 0.02 in0.5 mm
02:20 PM 52.9°F11.6°C 49.8°F9.9°C 89% Calm Calm 3.5 mph5.6 kmh 30.21 in1023.0 mb - 0.00 in0.0 mm 0.02 in0.5 mm
02:30 PM 52.8°F11.6°C 49.9°F9.9°C 90% 1.2 mph NE1.9 kmh NE 4.6 mph7.4 kmh 30.20 in1022.7 mb - 0.00 in0.0 mm 0.02 in0.5 mm
02:40 PM 52.7°F11.5°C 50.2°F10.1°C 91% Calm Calm 2.3 mph3.7 kmh 30.20 in1022.7 mb - 0.00 in0.0 mm 0.02 in0.5 mm
02:50 PM 52.6°F11.4°C 50.1°F10.1°C 91% 1.2 mph ENE1.9 kmh ENE 8.1 mph13.0 kmh 30.20 in1022.7 mb - 0.01 in0.3 mm 0.03 in0.8 mm
03:00 PM 52.6°F11.4°C 50.3°F10.2°C 92% Calm Calm 3.5 mph5.6 kmh 30.20 in1022.7 mb - 0.00 in0.0 mm 0.03 in0.8 mm
03:10 PM 52.5°F11.4°C 50.2°F10.1°C 92% Calm Calm 1.2 mph1.9 kmh 30.19 in1022.4 mb - 0.01 in0.3 mm 0.04 in1.0 mm
03:20 PM 52.4°F11.3°C 50.1°F10.1°C 92% 1.2 mph NE1.9 kmh NE 3.5 mph5.6 kmh 30.20 in1022.7 mb - 0.00 in0.0 mm 0.04 in1.0 mm
03:30 PM 52.3°F11.3°C 50.1°F10.1°C 92% Calm Calm -- 30.19 in1022.4 mb - 0.01 in0.3 mm 0.05 in1.3 mm
03:40 PM 52.3°F11.3°C 50.1°F10.1°C 92% 2.3 mph NE3.7 kmh NE 4.6 mph7.4 kmh 30.19 in1022.4 mb - 0.00 in0.0 mm 0.05 in1.3 mm
03:50 PM 52.3°F11.3°C 50.3°F10.2°C 93% Calm Calm 1.2 mph1.9 kmh 30.19 in1022.4 mb - 0.00 in0.0 mm 0.05 in1.3 mm
04:00 PM 52.3°F11.3°C 50.3°F10.2°C 93% Calm Calm -- 30.19 in1022.4 mb - 0.00 in0.0 mm 0.05 in1.3 mm
04:10 PM 52.3°F11.3°C 50.3°F10.2°C 93% Calm Calm 1.2 mph1.9 kmh 30.19 in1022.4 mb - 0.00 in0.0 mm 0.05 in1.3 mm
04:20 PM 52.3°F11.3°C 50.0°F10.0°C 92% Calm Calm -- 30.18 in1022.0 mb - 0.01 in0.3 mm 0.06 in1.5 mm
04:30 PM 52.3°F11.3°C 50.3°F10.2°C 93% Calm Calm 2.3 mph3.7 kmh 30.17 in1021.7 mb - 0.02 in0.5 mm 0.08 in2.0 mm
04:40 PM 52.2°F11.2°C 50.2°F10.1°C 93% Calm Calm 2.3 mph3.7 kmh 30.16 in1021.3 mb - 0.02 in0.5 mm 0.09 in2.3 mm
04:50 PM 52.2°F11.2°C 50.2°F10.1°C 93% Calm Calm 2.3 mph3.7 kmh 30.15 in1021.0 mb - 0.00 in0.0 mm 0.09 in2.3 mm
05:00 PM 52.2°F11.2°C 50.5°F10.3°C 94% 4.6 mph NE7.4 kmh NE 12.7 mph20.4 kmh 30.14 in1020.7 mb - 0.00 in0.0 mm 0.09 in2.3 mm
05:10 PM 52.2°F11.2°C 50.5°F10.3°C 94% Calm Calm 15.0 mph24.1 kmh 30.14 in1020.7 mb - 0.00 in0.0 mm 0.09 in2.3 mm
05:20 PM 52.4°F11.3°C 50.7°F10.4°C 94% 4.6 mph NE7.4 kmh NE 11.5 mph18.5 kmh 30.13 in1020.3 mb - 0.00 in0.0 mm 0.09 in2.3 mm
05:30 PM 52.5°F11.4°C 50.8°F10.4°C 94% Calm Calm 1.2 mph1.9 kmh 30.13 in1020.3 mb - 0.00 in0.0 mm 0.09 in2.3 mm
05:40 PM 52.6°F11.4°C 50.9°F10.5°C 94% Calm Calm -- 30.13 in1020.3 mb - 0.01 in0.3 mm 0.09 in2.3 mm
05:50 PM 52.6°F11.4°C 50.9°F10.5°C 94% 3.5 mph ENE5.6 kmh ENE 6.9 mph11.1 kmh 30.13 in1020.3 mb - 0.00 in0.0 mm 0.09 in2.3 mm
06:00 PM 52.5°F11.4°C 50.8°F10.4°C 94% 3.5 mph NE5.6 kmh NE 4.6 mph7.4 kmh 30.13 in1020.3 mb - 0.01 in0.3 mm 0.10 in2.5 mm
06:10 PM 52.5°F11.4°C 50.8°F10.4°C 94% 2.3 mph NE3.7 kmh NE 2.3 mph3.7 kmh 30.13 in1020.3 mb - 0.00 in0.0 mm 0.10 in2.5 mm
06:20 PM 52.5°F11.4°C 50.8°F10.4°C 94% Calm Calm 2.3 mph3.7 kmh 30.13 in1020.3 mb - 0.01 in0.3 mm 0.11 in2.8 mm
06:30 PM 52.6°F11.4°C 50.9°F10.5°C 94% 5.8 mph NE9.3 kmh NE 13.8 mph22.2 kmh 30.13 in1020.3 mb - 0.01 in0.3 mm 0.12 in3.0 mm
06:40 PM 52.6°F11.4°C 50.9°F10.5°C 94% 5.8 mph ENE9.3 kmh ENE 10.4 mph16.7 kmh 30.13 in1020.3 mb - 0.01 in0.3 mm 0.13 in3.3 mm
06:50 PM 52.6°F11.4°C 50.9°F10.5°C 94% 2.3 mph NE3.7 kmh NE 6.9 mph11.1 kmh 30.13 in1020.3 mb - 0.00 in0.0 mm 0.13 in3.3 mm
07:00 PM 52.6°F11.4°C 50.9°F10.5°C 94% 1.2 mph ENE1.9 kmh ENE 8.1 mph13.0 kmh 30.13 in1020.3 mb - 0.01 in0.3 mm 0.13 in3.3 mm
07:10 PM 52.6°F11.4°C 50.9°F10.5°C 94% Calm Calm 1.2 mph1.9 kmh 30.13 in1020.3 mb - 0.00 in0.0 mm 0.13 in3.3 mm
07:20 PM 52.7°F11.5°C 51.0°F10.6°C 94% 3.5 mph E5.6 kmh E 6.9 mph11.1 kmh 30.13 in1020.3 mb - 0.00 in0.0 mm 0.13 in3.3 mm
07:30 PM 52.7°F11.5°C 51.1°F10.6°C 94% Calm Calm 1.2 mph1.9 kmh 30.13 in1020.3 mb - 0.01 in0.3 mm 0.14 in3.6 mm
07:40 PM 52.8°F11.6°C 51.4°F10.8°C 95% Calm Calm -- 30.13 in1020.3 mb - 0.01 in0.3 mm 0.15 in3.8 mm
07:50 PM 52.8°F11.6°C 51.4°F10.8°C 95% 4.6 mph ENE7.4 kmh ENE 5.8 mph9.3 kmh 30.13 in1020.3 mb - 0.00 in0.0 mm 0.15 in3.8 mm
08:00 PM 52.9°F11.6°C 51.5°F10.8°C 95% 4.6 mph NE7.4 kmh NE 6.9 mph11.1 kmh 30.13 in1020.3 mb - 0.00 in0.0 mm 0.15 in3.8 mm
08:10 PM 52.9°F11.6°C 51.5°F10.8°C 95% Calm Calm 1.2 mph1.9 kmh 30.13 in1020.3 mb - 0.00 in0.0 mm 0.15 in3.8 mm
08:20 PM 53.1°F11.7°C 51.7°F10.9°C 95% Calm Calm -- 30.14 in1020.7 mb - 0.02 in0.5 mm 0.17 in4.3 mm
08:30 PM 53.2°F11.8°C 51.8°F11.0°C 95% Calm Calm 1.2 mph1.9 kmh 30.13 in1020.3 mb - 0.00 in0.0 mm 0.17 in4.3 mm
08:40 PM 53.2°F11.8°C 51.8°F11.0°C 95% Calm Calm -- 30.13 in1020.3 mb - 0.00 in0.0 mm 0.17 in4.3 mm
08:50 PM 53.3°F11.8°C 51.9°F11.1°C 95% Calm Calm -- 30.13 in1020.3 mb - 0.00 in0.0 mm 0.17 in4.3 mm
09:00 PM 53.4°F11.9°C 52.0°F11.1°C 95% 1.2 mph NNW1.9 kmh NNW 4.6 mph7.4 kmh 30.13 in1020.3 mb - 0.00 in0.0 mm 0.17 in4.3 mm
09:10 PM 53.4°F11.9°C 52.0°F11.1°C 95% Calm Calm 3.5 mph5.6 kmh 30.13 in1020.3 mb - 0.00 in0.0 mm 0.17 in4.3 mm
09:20 PM 53.5°F11.9°C 52.1°F11.2°C 95% 2.3 mph WNW3.7 kmh WNW 3.5 mph5.6 kmh 30.13 in1020.3 mb - 0.00 in0.0 mm 0.17 in4.3 mm
09:30 PM 53.5°F11.9°C 52.1°F11.2°C 95% 1.2 mph NNW1.9 kmh NNW 3.5 mph5.6 kmh 30.13 in1020.3 mb - 0.00 in0.0 mm 0.17 in4.3 mm
09:40 PM 53.6°F12.0°C 52.2°F11.2°C 95% 1.2 mph NW1.9 kmh NW 3.5 mph5.6 kmh 30.13 in1020.3 mb - 0.00 in0.0 mm 0.17 in4.3 mm
09:50 PM 53.6°F12.0°C 52.2°F11.2°C 95% Calm Calm -- 30.13 in1020.3 mb - 0.00 in0.0 mm 0.17 in4.3 mm
10:00 PM 53.8°F12.1°C 52.4°F11.3°C 95% Calm Calm 6.9 mph11.1 kmh 30.13 in1020.3 mb - 0.00 in0.0 mm 0.17 in4.3 mm
10:10 PM 53.9°F12.2°C 52.8°F11.6°C 96% Calm Calm 3.5 mph5.6 kmh 30.13 in1020.3 mb - 0.00 in0.0 mm 0.17 in4.3 mm
10:20 PM 54.0°F12.2°C 52.9°F11.6°C 96% 1.2 mph NNW1.9 kmh NNW 3.5 mph5.6 kmh 30.13 in1020.3 mb - 0.00 in0.0 mm 0.17 in4.3 mm
10:30 PM 53.8°F12.1°C 52.7°F11.5°C 96% 2.3 mph WSW3.7 kmh WSW 3.5 mph5.6 kmh 30.13 in1020.3 mb - 0.00 in0.0 mm 0.17 in4.3 mm
10:40 PM 54.0°F12.2°C 52.9°F11.6°C 96% 5.8 mph WSW9.3 kmh WSW 9.2 mph14.8 kmh 30.12 in1020.0 mb - 0.00 in0.0 mm 0.17 in4.3 mm
10:50 PM 54.1°F12.3°C 53.0°F11.7°C 96% 5.8 mph NW9.3 kmh NW 11.5 mph18.5 kmh 30.12 in1020.0 mb - 0.00 in0.0 mm 0.17 in4.3 mm
11:00 PM 53.9°F12.2°C 52.7°F11.5°C 96% 6.9 mph WSW11.1 kmh WSW 12.7 mph20.4 kmh 30.13 in1020.3 mb - 0.00 in0.0 mm 0.17 in4.3 mm
11:10 PM 53.8°F12.1°C 52.4°F11.3°C 95% 10.4 mph W16.7 kmh W 15.0 mph24.1 kmh 30.13 in1020.3 mb - 0.00 in0.0 mm 0.17 in4.3 mm
11:20 PM 53.9°F12.2°C 52.5°F11.4°C 95% 6.9 mph W11.1 kmh W 13.8 mph22.2 kmh 30.13 in1020.3 mb - 0.00 in0.0 mm 0.17 in4.3 mm
11:30 PM 54.1°F12.3°C 52.7°F11.5°C 95% 9.2 mph WNW14.8 kmh WNW 11.5 mph18.5 kmh 30.13 in1020.3 mb - 0.00 in0.0 mm 0.17 in4.3 mm
11:40 PM 54.2°F12.3°C 52.5°F11.4°C 94% 9.2 mph W14.8 kmh W 11.5 mph18.5 kmh 30.13 in1020.3 mb - 0.00 in0.0 mm 0.17 in4.3 mm
11:50 PM 54.5°F12.5°C 52.8°F11.6°C 94% 11.5 mph W18.5 kmh W 12.7 mph20.4 kmh 30.13 in1020.3 mb - 0.00 in0.0 mm 0.17 in4.3 mm